KMDW/MDW METAR and TAF weather

Enter ICAO airport designator
Station Type Date Time Source
KMDW METAR 2020/11/25 23:06 UTC NOAA

KMDW 252306Z 01005KT 2SM -DZ BR OVC003 08/07 A2970 RMK AO2 P0000 T00780067 $


Station Type Date Time Source
KMDW Decoded METAR 2020/11/25 23:06 UTC NOAA

CHICAGO MIDWAY AIRPORT, IL, United States (KMDW) 41-47N 087-45W 188M
Nov 25, 2020 - 06:06 PM EST / 2020.11.25 2306 UTC
Wind: from the N (010 degrees) at 6 MPH (5 KT):0
Visibility: 2 mile(s):0
Sky conditions: overcast
Weather: light drizzle; mist
Precipitation last hour: A trace
Temperature: 46.0 F (7.8 C)
Dew Point: 44.1 F (6.7 C)
Relative Humidity: 92%
Pressure (altimeter): 29.7 in. Hg (1005 hPa)
ob: KMDW 252306Z 01005KT 2SM -DZ BR OVC003 08/07 A2970 RMK AO2 P0000 T00780067
cycle: 23

Station Type Date Time Source
KMDW TAF 2020/11/25 22:27 UTC NOAA

TAF
AMD KMDW 252225Z 2522/2624 03006KT 1SM -SHRA BR OVC003
TEMPO 2522/2601 1/2SM DZ FG OVC002
FM260100 35006KT 5SM -DZ BR OVC004
FM260600 30007KT 6SM BR OVC007
FM261600 25009G15KT P6SM OVC010
FM262300 22009KT P6SM SCT060

Example: see airport list